Time;durP1;ratioP1;P1;durP2;ratioP2;P2;SDS_P1;SDS_P2;PMS_P1;PMS_P2;Temp;Humidity;BMP_temperature;BMP_pressure;BME280_temperature;BME280_humidity;BME280_pressure;Samples;Min_cycle;Max_cycle;Signal;HPM_P1;HPM_P2
2023/07/12 00:01:01;;;;;;;6.78;2.83;;;;;;;20.43;100.00;100651.38;5061550;28;20025;-73
2023/07/12 00:03:27;;;;;;;7.28;3.03;;;;;;;20.28;100.00;100630.25;5062033;28;20051;-73
2023/07/12 00:05:53;;;;;;;11.77;3.20;;;;;;;20.38;100.00;100651.34;5059227;28;20408;-73
2023/07/12 00:08:21;;;;;;;9.80;3.60;;;;;;;20.35;100.00;100649.94;5057084;28;20395;-73
2023/07/12 00:10:48;;;;;;;8.07;3.15;;;;;;;20.33;100.00;100643.09;5056228;28;20403;-73
2023/07/12 00:13:14;;;;;;;9.00;3.05;;;;;;;20.30;100.00;100633.56;5059687;28;20024;-73
2023/07/12 00:15:39;;;;;;;8.45;3.03;;;;;;;20.31;100.00;100627.00;5059231;28;20021;-73
2023/07/12 00:18:12;;;;;;;7.30;3.03;;;;;;;20.34;100.00;100617.44;5059922;28;20158;-73
2023/07/12 00:20:37;;;;;;;6.43;3.05;;;;;;;20.30;100.00;100619.06;5042434;28;20032;-73
2023/07/12 00:23:03;;;;;;;8.30;3.03;;;;;;;20.33;100.00;100615.78;5043173;28;20025;-74
2023/07/12 00:25:31;;;;;;;8.63;3.15;;;;;;;20.32;100.00;100617.69;5060225;28;20033;-73
2023/07/12 00:27:58;;;;;;;9.07;3.03;;;;;;;20.32;100.00;100620.44;5060418;28;20388;-74
2023/07/12 00:30:30;;;;;;;7.10;3.25;;;;;;;20.25;100.00;100598.00;5059110;28;20029;-74
2023/07/12 00:32:57;;;;;;;7.05;3.30;;;;;;;20.28;100.00;100607.59;5042892;28;20029;-74
2023/07/12 00:35:26;;;;;;;11.15;3.03;;;;;;;20.27;100.00;100600.47;5059177;28;20031;-74
2023/07/12 00:37:54;;;;;;;7.97;3.00;;;;;;;20.30;100.00;100595.31;5061002;28;20031;-74
2023/07/12 00:40:35;;;;;;;10.82;2.90;;;;;;;20.23;100.00;100589.28;5059551;28;20100;-73
2023/07/12 00:43:11;;;;;;;8.00;2.47;;;;;;;20.26;100.00;100588.72;5060169;28;20020;-74
2023/07/12 00:45:37;;;;;;;10.88;3.15;;;;;;;20.30;100.00;100584.38;5041821;28;20046;-74
2023/07/12 00:48:03;;;;;;;9.65;3.03;;;;;;;20.28;100.00;100585.72;4974333;28;20034;-74
2023/07/12 00:50:29;;;;;;;8.13;2.75;;;;;;;20.18;100.00;100573.66;4983691;28;20035;-74
2023/07/12 00:52:56;;;;;;;10.88;3.25;;;;;;;20.22;100.00;100568.47;5049272;28;20051;-73
2023/07/12 00:55:52;;;;;;;14.23;3.20;;;;;;;20.29;100.00;100576.44;5043289;28;20084;-74
2023/07/12 00:58:18;;;;;;;8.38;2.65;;;;;;;20.22;100.00;100570.41;4975492;28;20019;-73
2023/07/12 01:00:44;;;;;;;7.43;2.97;;;;;;;20.19;100.00;100564.38;5028895;28;20046;-73
2023/07/12 01:03:13;;;;;;;9.82;3.17;;;;;;;20.21;100.00;100568.78;5045297;28;20027;-74
2023/07/12 01:05:41;;;;;;;10.07;2.90;;;;;;;20.18;100.00;100559.19;4978435;28;20452;-74
2023/07/12 01:08:07;;;;;;;8.07;2.53;;;;;;;20.26;100.00;100580.50;4979868;28;20030;-73
2023/07/12 01:10:32;;;;;;;10.65;2.80;;;;;;;20.28;100.00;100577.53;5045920;28;20043;-74
2023/07/12 01:12:58;;;;;;;7.80;2.60;;;;;;;20.29;100.00;100582.72;5043547;28;20133;-74
2023/07/12 01:15:24;;;;;;;10.38;2.78;;;;;;;20.31;100.00;100572.34;5025743;28;20042;-74
2023/07/12 01:17:49;;;;;;;7.55;2.92;;;;;;;20.15;100.00;100546.06;4978313;28;20041;-73
2023/07/12 01:20:15;;;;;;;10.02;3.00;;;;;;;20.26;100.00;100563.31;5027204;28;20027;-74
2023/07/12 01:22:41;;;;;;;10.35;3.28;;;;;;;20.18;100.00;100543.63;5043774;28;20117;-74
2023/07/12 01:25:07;;;;;;;9.98;3.00;;;;;;;20.15;100.00;100521.47;5043838;28;20034;-74
2023/07/12 01:27:32;;;;;;;10.23;3.28;;;;;;;19.93;100.00;100486.19;5044396;28;20058;-74
2023/07/12 01:29:58;;;;;;;10.55;3.08;;;;;;;20.16;100.00;100545.81;5027425;28;20045;-74
2023/07/12 01:32:25;;;;;;;10.65;3.13;;;;;;;19.90;100.00;100524.94;5027651;28;20041;-74
2023/07/12 01:34:51;;;;;;;10.27;3.10;;;;;;;19.75;100.00;100520.25;5048428;28;20042;-74
2023/07/12 01:37:16;;;;;;;10.82;3.53;;;;;;;19.52;100.00;100496.94;5032634;28;20027;-73
2023/07/12 01:39:42;;;;;;;9.75;2.85;;;;;;;19.79;100.00;100523.28;5048681;28;20026;-74
2023/07/12 01:42:07;;;;;;;7.93;2.95;;;;;;;19.82;100.00;100511.81;5031737;28;20093;-73
2023/07/12 01:44:33;;;;;;;9.85;3.35;;;;;;;19.80;100.00;100508.53;5025464;28;20059;-74
2023/07/12 01:46:58;;;;;;;8.18;2.70;;;;;;;19.78;100.00;100518.91;5046974;28;20059;-74
2023/07/12 01:49:24;;;;;;;6.68;3.03;;;;;;;19.75;100.00;100519.44;4978684;28;20039;-73
2023/07/12 01:51:49;;;;;;;9.35;2.97;;;;;;;19.71;100.00;100511.78;4986226;28;20054;-73
2023/07/12 01:54:15;;;;;;;7.60;2.70;;;;;;;19.80;100.00;100514.84;5041816;28;20034;-73
2023/07/12 01:56:40;;;;;;;6.47;2.95;;;;;;;19.82;100.00;100517.28;5051011;28;20509;-73
2023/07/12 01:59:06;;;;;;;6.47;2.70;;;;;;;19.82;100.00;100534.47;5045670;28;20035;-74
2023/07/12 02:01:31;;;;;;;9.73;2.40;;;;;;;19.67;100.00;100545.38;5047557;28;20134;-74
2023/07/12 02:03:56;;;;;;;8.02;2.40;;;;;;;19.80;100.00;100557.69;5048139;28;20041;-73
2023/07/12 02:06:22;;;;;;;4.63;2.30;;;;;;;19.79;100.00;100532.28;5031249;28;20102;-74
2023/07/12 02:08:48;;;;;;;5.60;2.20;;;;;;;19.87;100.00;100515.41;5047999;28;20391;-74
2023/07/12 02:11:14;;;;;;;6.03;2.10;;;;;;;19.83;100.00;100508.81;5015314;28;20046;-74
2023/07/12 02:13:39;;;;;;;7.45;1.95;;;;;;;19.78;100.00;100518.91;4982628;28;20031;-73
2023/07/12 02:16:05;;;;;;;5.20;1.92;;;;;;;19.69;100.00;100492.13;5031731;28;20035;-74
2023/07/12 02:18:30;;;;;;;3.13;1.65;;;;;;;19.77;100.00;100522.72;5047066;28;20062;-73
2023/07/12 02:20:56;;;;;;;6.32;1.70;;;;;;;19.73;100.00;100514.25;5029139;28;20033;-74
2023/07/12 02:23:21;;;;;;;5.47;1.90;;;;;;;19.64;100.00;100496.75;5030961;28;20030;-74
2023/07/12 02:25:48;;;;;;;4.53;1.60;;;;;;;19.74;100.00;100509.63;4979691;28;20023;-73
2023/07/12 02:28:13;;;;;;;4.22;1.50;;;;;;;19.71;100.00;100506.34;5045620;28;20076;-73
2023/07/12 02:30:43;;;;;;;5.63;1.67;;;;;;;19.78;100.00;100497.06;5045498;28;20576;-73
2023/07/12 02:33:08;;;;;;;4.30;1.60;;;;;;;19.76;100.00;100485.59;4975604;28;20530;-74
2023/07/12 02:35:34;;;;;;;4.80;1.60;;;;;;;19.74;100.00;100463.22;4976364;28;20066;-73
2023/07/12 02:38:00;;;;;;;5.78;1.88;;;;;;;19.74;100.00;100455.84;5045910;28;20031;-73
2023/07/12 02:40:27;;;;;;;5.28;1.73;;;;;;;19.75;100.00;100456.66;4979728;28;20027;-73
2023/07/12 02:42:54;;;;;;;6.30;1.70;;;;;;;19.80;100.00;100456.66;4977468;28;20031;-73
2023/07/12 02:45:20;;;;;;;6.03;2.03;;;;;;;19.78;100.00;100461.59;5044209;28;20515;-73
2023/07/12 02:47:45;;;;;;;4.28;1.67;;;;;;;19.77;100.00;100447.13;5028698;28;20129;-74
2023/07/12 02:50:10;;;;;;;4.15;1.60;;;;;;;19.69;100.00;100442.16;4985915;28;20070;-74
2023/07/12 02:52:36;;;;;;;5.82;1.83;;;;;;;19.74;100.00;100446.84;5046864;28;20113;-73
2023/07/12 02:55:02;;;;;;;4.55;1.88;;;;;;;19.62;100.00;100428.75;5030360;28;20050;-74
2023/07/12 02:57:27;;;;;;;4.80;1.60;;;;;;;19.70;100.00;100446.53;5046603;28;20038;-74
2023/07/12 02:59:53;;;;;;;5.03;1.80;;;;;;;19.69;100.00;100439.44;5046305;28;20121;-74
2023/07/12 03:02:18;;;;;;;4.00;1.85;;;;;;;19.73;100.00;100434.25;4979318;28;20080;-73
2023/07/12 03:04:44;;;;;;;3.30;1.83;;;;;;;19.78;100.00;100428.81;4979506;28;20130;-74
2023/07/12 03:07:10;;;;;;;6.57;2.00;;;;;;;19.75;100.00;100423.91;4980745;28;20174;-73
2023/07/12 03:09:35;;;;;;;7.38;2.22;;;;;;;19.73;100.00;100415.97;4981112;28;20041;-74
2023/07/12 03:12:01;;;;;;;6.72;2.40;;;;;;;19.73;100.00;100407.78;5047094;28;20042;-74
2023/07/12 03:14:27;;;;;;;6.78;1.90;;;;;;;19.69;100.00;100391.13;4979762;28;20034;-73
2023/07/12 03:16:53;;;;;;;4.18;2.00;;;;;;;19.64;100.00;100376.66;5051158;28;20034;-74
2023/07/12 03:19:18;;;;;;;7.75;2.38;;;;;;;19.51;100.00;100356.13;5055772;28;20038;-73
2023/07/12 03:21:46;;;;;;;7.78;2.20;;;;;;;19.45;100.00;100365.38;5054055;28;20050;-74
2023/07/12 03:24:11;;;;;;;6.50;2.20;;;;;;;19.46;100.00;100364.28;5045700;28;20125;-73
2023/07/12 03:26:37;;;;;;;5.47;2.20;;;;;;;19.39;100.00;100353.63;4976928;28;20067;-73
2023/07/12 03:29:04;;;;;;;6.15;2.08;;;;;;;19.39;100.00;100352.81;5027579;28;20034;-74
2023/07/12 03:31:30;;;;;;;8.23;2.13;;;;;;;19.35;100.00;100349.81;4979874;28;20053;-74
2023/07/12 03:33:57;;;;;;;5.10;2.63;;;;;;;19.31;100.00;100361.53;4979249;28;20045;-73
2023/07/12 03:36:24;;;;;;;4.00;1.90;;;;;;;19.09;100.00;100348.91;5046158;28;20027;-74
2023/07/12 03:38:50;;;;;;;6.35;2.03;;;;;;;19.21;100.00;100386.88;5046458;28;20022;-74
2023/07/12 03:41:16;;;;;;;4.50;1.60;;;;;;;19.20;100.00;100396.97;5045423;28;20054;-73
2023/07/12 03:43:42;;;;;;;4.55;2.08;;;;;;;19.28;100.00;100409.25;5039227;28;20054;-74
2023/07/12 03:46:07;;;;;;;3.97;1.67;;;;;;;19.29;100.00;100407.34;5041797;28;20035;-74
2023/07/12 03:48:33;;;;;;;5.53;2.10;;;;;;;19.33;100.00;100405.72;5052562;28;20027;-74
2023/07/12 03:50:59;;;;;;;4.63;1.85;;;;;;;19.35;100.00;100419.91;4987827;28;20082;-74
2023/07/12 03:53:27;;;;;;;5.78;1.88;;;;;;;19.41;100.00;100421.59;4980326;28;20065;-74
2023/07/12 03:55:52;;;;;;;4.78;1.80;;;;;;;19.42;100.00;100417.75;5045895;28;20023;-74
2023/07/12 03:58:21;;;;;;;4.47;2.00;;;;;;;19.46;100.00;100418.84;5046579;28;20038;-74
2023/07/12 04:00:48;;;;;;;3.53;1.58;;;;;;;19.46;100.00;100421.59;5046177;28;20040;-74
2023/07/12 04:03:16;;;;;;;4.90;1.80;;;;;;;19.49;100.00;100438.25;4979563;28;20030;-74
2023/07/12 04:05:42;;;;;;;4.18;1.90;;;;;;;19.51;100.00;100446.19;5045967;28;20035;-74
2023/07/12 04:08:10;;;;;;;6.07;2.05;;;;;;;19.53;100.00;100451.34;5045494;28;20042;-74
2023/07/12 04:10:35;;;;;;;5.18;1.75;;;;;;;19.56;100.00;100446.19;5043694;28;20027;-73
2023/07/12 04:13:02;;;;;;;6.13;1.80;;;;;;;19.56;100.00;100454.38;4977973;28;20031;-74
2023/07/12 04:15:28;;;;;;;9.63;3.03;;;;;;;19.51;100.00;100456.28;4979409;28;20027;-73
2023/07/12 04:17:53;;;;;;;14.35;3.25;;;;;;;19.47;100.00;100465.00;5044966;28;20045;-73
2023/07/12 04:20:19;;;;;;;12.05;3.05;;;;;;;19.42;100.00;100464.16;5045054;28;20038;-73
2023/07/12 04:22:51;;;;;;;9.88;3.13;;;;;;;19.31;100.00;100454.28;4978446;28;20050;-73
2023/07/12 04:25:18;;;;;;;8.70;2.88;;;;;;;19.21;100.00;100447.69;4978428;28;20045;-73
2023/07/12 04:27:44;;;;;;;6.65;2.88;;;;;;;19.17;100.00;100434.81;5048306;28;20033;-73
2023/07/12 04:30:12;;;;;;;7.78;3.30;;;;;;;19.05;100.00;100410.50;5047396;28;20027;-73
2023/07/12 04:32:38;;;;;;;8.70;2.50;;;;;;;19.09;100.00;100432.63;5047895;28;20034;-73
2023/07/12 04:35:03;;;;;;;9.80;2.95;;;;;;;19.03;100.00;100437.22;5029827;28;20053;-73
2023/07/12 04:37:30;;;;;;;8.88;3.00;;;;;;;18.84;100.00;100419.66;4979802;28;20027;-74
2023/07/12 04:39:55;;;;;;;7.40;2.70;;;;;;;18.84;100.00;100419.66;5046450;28;20374;-73
2023/07/12 04:42:21;;;;;;;8.27;3.03;;;;;;;18.80;100.00;100418.53;5029267;28;20062;-72
2023/07/12 04:44:46;;;;;;;7.25;3.05;;;;;;;18.82;100.00;100417.19;5045803;28;20108;-73
2023/07/12 04:47:14;;;;;;;6.40;2.50;;;;;;;18.71;100.00;100383.59;4978810;28;20023;-73
2023/07/12 04:49:40;;;;;;;4.75;2.50;;;;;;;18.34;100.00;100363.69;4979126;28;20592;-73
2023/07/12 04:52:06;;;;;;;5.30;2.65;;;;;;;18.41;100.00;100367.84;5045547;28;20034;-73
2023/07/12 04:54:34;;;;;;;7.75;3.00;;;;;;;18.60;100.00;100376.41;5042353;28;20043;-73
2023/07/12 04:56:59;;;;;;;7.35;3.20;;;;;;;18.40;100.00;100338.94;4975729;28;20026;-73
2023/07/12 04:59:25;;;;;;;10.88;4.18;;;;;;;18.62;100.00;100368.00;5043792;28;20065;-73
2023/07/12 05:01:50;;;;;;;10.05;3.50;;;;;;;18.65;100.00;100378.38;5044694;28;20046;-73
2023/07/12 05:04:16;;;;;;;11.23;3.30;;;;;;;18.63;100.00;100394.97;5045493;28;20076;-73
2023/07/12 05:06:41;;;;;;;7.95;3.50;;;;;;;18.53;100.00;100382.09;5045378;28;20039;-73
2023/07/12 05:09:07;;;;;;;9.50;3.67;;;;;;;18.51;100.00;100376.09;5032125;28;20035;-73
2023/07/12 05:11:32;;;;;;;8.93;3.20;;;;;;;18.61;100.00;100399.03;5032602;28;20057;-73
2023/07/12 05:13:58;;;;;;;12.65;3.80;;;;;;;18.59;100.00;100406.66;4982118;28;20027;-73
2023/07/12 05:16:23;;;;;;;11.80;3.72;;;;;;;18.61;100.00;100409.91;5048876;28;20041;-73
2023/07/12 05:18:49;;;;;;;9.45;3.67;;;;;;;18.59;100.00;100418.38;5049808;28;20045;-73
2023/07/12 05:21:15;;;;;;;8.73;3.80;;;;;;;18.49;100.00;100397.31;5049130;28;20084;-73
2023/07/12 05:23:41;;;;;;;7.50;3.65;;;;;;;18.68;100.00;100421.44;5049137;28;20094;-73
2023/07/12 05:26:07;;;;;;;8.98;3.90;;;;;;;18.70;100.00;100424.72;4982706;28;20069;-73
2023/07/12 05:28:33;;;;;;;8.90;3.75;;;;;;;18.67;100.00;100419.78;4983448;28;20034;-73
2023/07/12 05:31:06;;;;;;;6.60;3.47;;;;;;;18.66;100.00;100412.69;5033742;28;20121;-73
2023/07/12 05:33:31;;;;;;;11.23;4.07;;;;;;;18.67;100.00;100419.78;4982569;28;20427;-73
2023/07/12 05:35:57;;;;;;;9.30;3.70;;;;;;;18.65;100.00;100413.78;4980464;28;20260;-73
2023/07/12 05:38:22;;;;;;;9.93;4.07;;;;;;;18.66;100.00;100416.25;4981661;28;20034;-73
2023/07/12 05:40:47;;;;;;;9.38;3.72;;;;;;;18.66;100.00;100413.50;5048646;28;20057;-74
2023/07/12 05:43:21;;;;;;;9.02;3.65;;;;;;;18.70;100.00;100430.16;5032579;28;20022;-73
2023/07/12 05:45:46;;;;;;;12.60;3.83;;;;;;;18.73;100.00;100433.22;4981872;28;20069;-73
2023/07/12 05:48:11;;;;;;;8.52;3.83;;;;;;;18.75;100.00;100433.78;5049291;28;20034;-73
2023/07/12 05:50:37;;;;;;;11.15;4.70;;;;;;;18.66;100.00;100416.25;5065047;28;20042;-73
2023/07/12 05:53:03;;;;;;;11.90;4.03;;;;;;;18.61;100.00;100408.03;5048852;28;20039;-73
2023/07/12 05:55:28;;;;;;;9.02;3.80;;;;;;;18.75;100.00;100439.22;5049131;28;20094;-74
2023/07/12 05:57:53;;;;;;;10.38;4.13;;;;;;;18.77;100.00;100431.63;5066114;28;20096;-73
2023/07/12 06:00:19;;;;;;;9.95;4.30;;;;;;;18.72;100.00;100419.84;4981686;28;20038;-73
2023/07/12 06:02:45;;;;;;;9.43;4.10;;;;;;;18.76;100.00;100419.06;5045738;28;20035;-73
2023/07/12 06:05:10;;;;;;;9.18;4.15;;;;;;;18.74;100.00;100414.94;5065882;28;20022;-73
2023/07/12 06:07:35;;;;;;;9.55;4.07;;;;;;;18.72;100.00;100414.41;5046929;28;20027;-72
2023/07/12 06:10:01;;;;;;;10.30;4.65;;;;;;;18.73;100.00;100407.88;5063480;28;20399;-73
2023/07/12 06:12:26;;;;;;;8.13;3.95;;;;;;;18.69;100.00;100410.25;5046517;28;20038;-73
2023/07/12 06:14:52;;;;;;;10.73;3.95;;;;;;;18.53;100.00;100375.81;5048158;28;20022;-73
2023/07/12 06:17:17;;;;;;;10.13;4.25;;;;;;;18.70;100.00;100392.81;4981262;28;20160;-73
2023/07/12 06:19:44;;;;;;;10.88;3.80;;;;;;;18.73;100.00;100391.50;5047504;28;20027;-73
2023/07/12 06:22:10;;;;;;;6.90;4.18;;;;;;;18.56;100.00;100388.91;5048969;28;20026;-73
2023/07/12 06:24:36;;;;;;;13.68;4.68;;;;;;;18.64;100.00;100391.16;4980897;28;20460;-73
2023/07/12 06:27:01;;;;;;;10.40;5.00;;;;;;;18.77;100.00;100392.63;5046277;28;20042;-73
2023/07/12 06:29:27;;;;;;;10.00;4.68;;;;;;;18.81;100.00;100396.47;4980069;28;20031;-73
2023/07/12 06:31:54;;;;;;;8.52;4.75;;;;;;;18.82;100.00;100403.56;5046685;28;20034;-73
2023/07/12 06:34:20;;;;;;;9.10;4.45;;;;;;;18.83;100.00;100397.03;4980537;28;20035;-73
2023/07/12 06:36:45;;;;;;;8.50;4.75;;;;;;;18.85;100.00;100394.03;5047942;28;20062;-73
2023/07/12 06:39:11;;;;;;;12.18;4.75;;;;;;;18.87;100.00;100389.13;5048467;28;20038;-73
2023/07/12 06:41:36;;;;;;;10.25;4.80;;;;;;;18.82;100.00;100372.75;5046255;28;20481;-73
2023/07/12 06:44:01;;;;;;;11.15;4.93;;;;;;;18.93;100.00;100374.44;5076251;28;20526;-73
2023/07/12 06:46:27;;;;;;;7.45;4.70;;;;;;;18.95;100.00;100370.38;5061597;28;20037;-73
2023/07/12 06:48:52;;;;;;;10.73;5.00;;;;;;;18.93;100.00;100364.34;5044382;28;20025;-73
2023/07/12 06:51:18;;;;;;;9.52;4.95;;;;;;;18.89;100.00;100357.81;5045011;28;20040;-74
2023/07/12 06:53:43;;;;;;;10.50;5.30;;;;;;;18.90;100.00;100358.63;5044717;28;20029;-73
2023/07/12 06:56:09;;;;;;;9.93;5.13;;;;;;;18.85;100.00;100351.25;5045139;28;20033;-73
2023/07/12 06:58:34;;;;;;;11.18;5.10;;;;;;;18.90;100.00;100353.16;5062243;28;20055;-73
2023/07/12 07:01:00;;;;;;;14.02;5.50;;;;;;;18.91;100.00;100354.81;5061443;28;20079;-73
2023/07/12 07:03:26;;;;;;;10.77;5.68;;;;;;;18.88;100.00;100349.91;5038853;28;20043;-73
2023/07/12 07:05:51;;;;;;;9.57;5.75;;;;;;;18.80;100.00;100345.75;5060001;28;20033;-73
2023/07/12 07:08:18;;;;;;;10.85;5.90;;;;;;;18.88;100.00;100337.09;5044040;28;20029;-73
2023/07/12 07:10:49;;;;;;;13.50;5.75;;;;;;;18.84;100.00;100338.72;5043645;28;20021;-73
2023/07/12 07:13:14;;;;;;;15.75;6.07;;;;;;;18.64;100.00;100325.78;5043540;28;20053;-73
2023/07/12 07:15:40;;;;;;;10.25;5.40;;;;;;;18.62;100.00;100322.47;5061919;28;20037;-73
2023/07/12 07:18:07;;;;;;;12.68;5.10;;;;;;;18.75;100.00;100327.47;5062084;28;20033;-73
2023/07/12 07:20:33;;;;;;;6.03;4.28;;;;;;;18.78;100.00;100328.88;5043567;28;20028;-73
2023/07/12 07:22:59;;;;;;;9.43;4.80;;;;;;;18.86;100.00;100327.53;5042342;28;20484;-72
2023/07/12 07:25:27;;;;;;;10.55;5.75;;;;;;;18.88;100.00;100331.63;5043140;28;20036;-72
2023/07/12 07:27:53;;;;;;;8.55;4.97;;;;;;;18.71;100.00;100312.72;5027656;28;20052;-72
2023/07/12 07:30:18;;;;;;;8.90;4.78;;;;;;;18.66;100.00;100304.50;5059759;28;20029;-72
2023/07/12 07:32:44;;;;;;;7.85;4.57;;;;;;;18.38;100.00;100285.84;5060991;28;20036;-73
2023/07/12 07:35:11;;;;;;;10.70;4.45;;;;;;;18.50;100.00;100284.53;5061236;28;20029;-72
2023/07/12 07:37:37;;;;;;;9.48;5.15;;;;;;;18.52;100.00;100281.56;5043638;28;20041;-72
2023/07/12 07:40:03;;;;;;;9.60;5.30;;;;;;;18.30;100.00;100224.50;5061750;28;20369;-72
2023/07/12 07:42:29;;;;;;;12.57;4.95;;;;;;;18.62;100.00;100275.34;5043142;28;20025;-72
2023/07/12 07:44:54;;;;;;;8.95;5.05;;;;;;;18.66;100.00;100271.00;5043236;28;20061;-73
2023/07/12 07:47:21;;;;;;;12.20;5.20;;;;;;;18.21;100.00;100224.19;5061985;28;20037;-73
2023/07/12 07:49:46;;;;;;;8.32;5.03;;;;;;;18.80;100.00;100265.88;5043518;28;20496;-72
2023/07/12 07:52:12;;;;;;;12.82;4.97;;;;;;;18.83;100.00;100285.25;5060923;28;20037;-73
2023/07/12 07:54:39;;;;;;;8.98;5.35;;;;;;;18.99;100.00;100292.41;5058939;28;20054;-72
2023/07/12 07:57:06;;;;;;;7.53;4.80;;;;;;;19.08;100.00;100300.91;5059375;28;20037;-72
2023/07/12 07:59:31;;;;;;;10.20;4.95;;;;;;;19.11;100.00;100292.19;5060451;28;20080;-73
2023/07/12 08:01:57;;;;;;;10.40;5.10;;;;;;;19.19;100.00;100294.38;5059111;28;20036;-72
2023/07/12 08:04:24;;;;;;;9.15;4.97;;;;;;;19.20;100.00;100287.84;5060641;28;20403;-73
2023/07/12 08:06:50;;;;;;;10.27;5.35;;;;;;;19.13;100.00;100265.44;5043058;28;20435;-72
2023/07/12 08:09:15;;;;;;;9.98;5.28;;;;;;;19.20;100.00;100274.22;5060093;28;20533;-73
2023/07/12 08:11:41;;;;;;;8.85;5.32;;;;;;;19.18;100.00;100272.84;5042502;28;20495;-72
2023/07/12 08:14:07;;;;;;;7.50;5.35;;;;;;;19.25;100.00;100284.31;5042310;28;20020;-72
2023/07/12 08:16:35;;;;;;;6.82;5.15;;;;;;;19.21;100.00;100256.75;5040406;28;20537;-72
2023/07/12 08:19:02;;;;;;;7.93;4.88;;;;;;;19.23;100.00;100262.75;5040320;28;20128;-72
2023/07/12 08:21:28;;;;;;;7.15;4.93;;;;;;;19.13;100.00;100251.00;5060065;28;20052;-72
2023/07/12 08:23:54;;;;;;;6.07;4.30;;;;;;;19.18;100.00;100251.84;5043406;28;20036;-72
2023/07/12 08:26:19;;;;;;;7.10;4.00;;;;;;;18.99;100.00;100216.06;5042842;28;20111;-72
2023/07/12 08:28:45;;;;;;;7.25;4.13;;;;;;;19.17;100.00;100239.28;5061237;28;20025;-72
2023/07/12 08:31:11;;;;;;;8.70;4.28;;;;;;;19.36;100.00;100253.22;5060070;28;20025;-72
2023/07/12 08:33:37;;;;;;;6.15;4.28;;;;;;;19.45;100.00;100250.78;5026668;28;20036;-72
2023/07/12 08:36:03;;;;;;;5.55;3.90;;;;;;;19.64;100.00;100259.28;5043115;28;20075;-72
2023/07/12 08:38:31;;;;;;;4.70;4.00;;;;;;;19.67;100.00;100258.75;5060777;28;20090;-72
2023/07/12 08:40:58;;;;;;;9.88;4.82;;;;;;;19.83;100.00;100254.09;5027438;28;20036;-72
2023/07/12 08:43:31;;;;;;;6.63;3.65;;;;;;;19.82;100.00;100244.25;5060759;28;20029;-72
2023/07/12 08:46:08;;;;;;;6.32;3.42;;;;;;;19.90;100.00;100250.00;5061569;28;20025;-73
2023/07/12 08:48:35;;;;;;;5.72;3.83;;;;;;;19.81;100.00;100237.19;5043355;28;20037;-72
2023/07/12 08:51:05;;;;;;;4.93;3.53;;;;;;;19.87;100.00;100230.63;5043000;28;20032;-72
2023/07/12 08:53:33;;;;;;;4.78;3.10;;;;;;;19.90;100.00;100214.50;5060566;28;20025;-72
2023/07/12 08:56:01;;;;;;;4.85;3.28;;;;;;;20.03;100.00;100215.00;5060227;28;20025;-72
2023/07/12 08:58:33;;;;;;;4.60;2.80;;;;;;;20.02;100.00;100210.66;5042606;28;20028;-72
2023/07/12 09:01:03;;;;;;;3.75;2.70;;;;;;;19.84;100.00;100201.13;5061052;28;20017;-72
2023/07/12 09:03:29;;;;;;;3.42;2.53;;;;;;;20.10;100.00;100200.00;5060671;28;20021;-72
2023/07/12 09:05:55;;;;;;;3.75;2.60;;;;;;;20.04;100.00;100194.81;5042864;28;20506;-72
2023/07/12 09:08:29;;;;;;;4.95;2.53;;;;;;;20.25;100.00;100190.91;5059689;28;20028;-73
2023/07/12 09:10:56;;;;;;;4.65;2.40;;;;;;;20.22;100.00;100198.84;5042389;28;20048;-73
2023/07/12 09:13:32;;;;;;;3.58;2.17;;;;;;;20.47;100.00;100195.22;5042707;28;20032;-73
2023/07/12 09:15:58;;;;;;;3.58;2.30;;;;;;;20.48;100.00;100200.41;5060953;28;20108;-73
2023/07/12 09:18:29;;;;;;;3.08;2.20;;;;;;;20.47;100.00;100197.97;5058753;28;20538;-73
2023/07/12 09:20:57;;;;;;;4.20;2.20;;;;;;;20.18;100.00;100188.47;5062844;28;20032;-73
2023/07/12 09:23:22;;;;;;;3.03;1.92;;;;;;;20.33;100.00;100178.59;5038900;28;20078;-73
2023/07/12 09:25:55;;;;;;;3.80;1.70;;;;;;;20.50;100.00;100175.53;5041302;28;20128;-72
2023/07/12 09:28:21;;;;;;;1.85;1.60;;;;;;;20.65;100.00;100170.00;5059382;28;20032;-73
2023/07/12 09:30:48;;;;;;;1.77;1.42;;;;;;;20.77;100.00;100178.69;5057983;28;20031;-73
2023/07/12 09:33:18;;;;;;;1.92;1.50;;;;;;;20.77;100.00;100192.38;5059725;28;20431;-73
2023/07/12 09:35:45;;;;;;;1.55;1.30;;;;;;;20.78;100.00;100190.44;5058946;28;20385;-73
2023/07/12 09:38:24;;;;;;;1.95;1.15;;;;;;;20.83;100.00;100195.91;5042567;28;20063;-73
2023/07/12 09:40:51;;;;;;;3.75;1.60;;;;;;;20.78;100.00;100195.91;5042575;28;20411;-73
2023/07/12 09:43:16;;;;;;;2.85;1.20;;;;;;;20.79;100.00;100212.03;5059888;28;20025;-73
2023/07/12 09:45:54;;;;;;;3.10;1.50;;;;;;;20.74;100.00;100214.00;5042205;28;20130;-73
2023/07/12 09:48:34;;;;;;;1.77;1.30;;;;;;;20.68;100.00;100217.84;5059876;28;20094;-73
2023/07/12 09:51:07;;;;;;;2.25;1.55;;;;;;;20.67;100.00;100222.50;5059895;28;20100;-73
2023/07/12 09:53:50;;;;;;;2.17;1.40;;;;;;;20.67;100.00;100218.94;5043218;28;20392;-74
2023/07/12 09:56:40;;;;;;;2.70;1.30;;;;;;;20.60;100.00;100220.06;5046317;28;20037;-73
2023/07/12 09:59:34;;;;;;;5.78;1.50;;;;;;;20.57;100.00;100230.75;5045999;28;20021;-73
2023/07/12 10:02:12;;;;;;;2.10;1.38;;;;;;;20.51;100.00;100229.13;5045748;28;20116;-73
2023/07/12 10:04:58;;;;;;;2.70;1.50;;;;;;;20.50;100.00;100238.41;5062373;28;20102;-73
2023/07/12 10:07:37;;;;;;;3.80;1.52;;;;;;;20.49;100.00;100240.28;5044113;28;20031;-73
2023/07/12 10:10:15;;;;;;;2.38;1.58;;;;;;;20.50;100.00;100233.75;5063382;28;20025;-73
2023/07/12 10:12:53;;;;;;;2.72;1.70;;;;;;;20.47;100.00;100228.84;5063739;28;20025;-73
2023/07/12 10:15:18;;;;;;;4.28;1.80;;;;;;;20.46;100.00;100227.19;5045402;28;20017;-72
2023/07/12 10:17:45;;;;;;;2.83;1.77;;;;;;;20.46;100.00;100235.38;5028861;28;20036;-73
2023/07/12 10:20:20;;;;;;;4.50;1.70;;;;;;;20.48;100.00;100224.19;5062962;28;20030;-73
2023/07/12 10:22:46;;;;;;;2.78;1.80;;;;;;;20.47;100.00;100226.09;5040554;28;20032;-73
2023/07/12 10:25:14;;;;;;;2.10;1.80;;;;;;;20.43;100.00;100222.31;5044280;28;21045;-73
2023/07/12 10:27:47;;;;;;;3.90;2.10;;;;;;;20.29;100.00;100215.75;5063096;28;20103;-72
2023/07/12 10:30:19;;;;;;;2.63;1.98;;;;;;;20.21;100.00;100202.69;5045786;28;20025;-72
2023/07/12 10:33:13;;;;;;;3.30;2.28;;;;;;;20.08;100.00;100212.28;5045180;28;20037;-73
2023/07/12 10:35:45;;;;;;;7.03;2.33;;;;;;;20.09;100.00;100195.59;5042996;28;20102;-72
2023/07/12 10:38:17;;;;;;;3.33;2.30;;;;;;;20.06;100.00;100203.53;5045105;28;20029;-73
2023/07/12 10:40:54;;;;;;;5.93;2.60;;;;;;;20.08;100.00;100210.38;5063567;28;20062;-73
2023/07/12 10:43:31;;;;;;;5.35;2.20;;;;;;;19.82;100.00;100200.59;5045109;28;20094;-72
2023/07/12 10:46:03;;;;;;;4.28;2.58;;;;;;;19.86;100.00;100207.13;5064161;28;20034;-72
2023/07/12 10:48:29;;;;;;;4.38;2.35;;;;;;;19.87;100.00;100206.06;5063829;28;20032;-72
2023/07/12 10:51:11;;;;;;;4.47;2.50;;;;;;;20.05;100.00;100204.63;5041497;28;20032;-72
2023/07/12 10:53:49;;;;;;;7.05;3.05;;;;;;;19.98;100.00;100185.81;5044821;28;20029;-72
2023/07/12 10:56:24;;;;;;;5.35;3.03;;;;;;;20.04;100.00;100176.50;5064009;28;20021;-72
2023/07/12 10:58:58;;;;;;;6.45;3.35;;;;;;;20.25;100.00;100204.56;5043191;28;20033;-73
2023/07/12 11:01:45;;;;;;;;;;;;;;;20.32;100.00;100196.91;5044814;28;20025;-72
2023/07/12 11:04:18;;;;;;;7.57;3.22;;;;;;;20.29;100.00;100227.50;5043743;28;19908;-73
2023/07/12 11:07:02;;;;;;;5.53;2.90;;;;;;;20.33;100.00;100231.34;5043412;28;20029;-73
2023/07/12 11:09:43;;;;;;;3.67;2.40;;;;;;;20.29;100.00;100222.03;5058410;28;20040;-72
2023/07/12 11:12:11;;;;;;;12.70;2.58;;;;;;;20.14;100.00;100231.13;5060417;28;20071;-73
2023/07/12 11:14:37;;;;;;;17.25;2.53;;;;;;;19.98;100.00;100232.22;5062084;28;20076;-72
2023/07/12 11:17:11;;;;;;;14.93;2.97;;;;;;;19.98;100.00;100225.97;5044683;28;20051;-73
2023/07/12 11:19:39;;;;;;;;;;;;;;;20.00;100.00;100208.22;5044038;28;20025;-73